Time;durP1;ratioP1;P1;durP2;ratioP2;P2;SDS_P1;SDS_P2;PMS_P1;PMS_P2;Temp;Humidity;BMP_temperature;BMP_pressure;BME280_temperature;BME280_humidity;BME280_pressure;Samples;Min_cycle;Max_cycle;Signal;HPM_P1;HPM_P2
2020/12/15 00:02:20;;;;;;;4.10;3.70;;;;;;;7.40;69.51;100264.66;5011283;28;20708;-66
2020/12/15 00:04:47;;;;;;;7.10;6.40;;;;;;;7.38;69.31;100264.75;5008842;28;20215;-67
2020/12/15 00:07:13;;;;;;;5.77;4.33;;;;;;;7.38;69.37;100259.44;5020318;28;20693;-65
2020/12/15 00:09:39;;;;;;;4.13;3.73;;;;;;;7.40;69.15;100251.41;5020556;28;20655;-66
2020/12/15 00:12:05;;;;;;;4.13;3.73;;;;;;;7.39;70.16;100261.16;5021703;28;20764;-66
2020/12/15 00:14:31;;;;;;;4.03;3.63;;;;;;;7.41;70.20;100253.13;5015265;28;20237;-66
2020/12/15 00:16:57;;;;;;;4.33;3.93;;;;;;;7.41;70.16;100256.63;5004594;28;20214;-66
2020/12/15 00:19:23;;;;;;;4.50;4.10;;;;;;;7.41;70.02;100259.28;5011123;28;20237;-66
2020/12/15 00:21:51;;;;;;;4.43;4.00;;;;;;;7.40;69.96;100256.72;5011708;28;20229;-66
2020/12/15 00:24:17;;;;;;;4.03;3.37;;;;;;;7.40;70.16;100252.28;5010197;28;20205;-65
2020/12/15 00:26:44;;;;;;;4.53;3.73;;;;;;;7.41;70.22;100248.69;5010924;28;20207;-66
2020/12/15 00:29:12;;;;;;;4.27;3.87;;;;;;;7.42;69.92;100249.53;5003756;28;20195;-66
2020/12/15 00:31:38;;;;;;;4.27;3.97;;;;;;;7.42;69.67;100250.38;5010127;28;20209;-66
2020/12/15 00:34:04;;;;;;;4.30;3.90;;;;;;;7.43;70.00;100248.59;5010028;28;20237;-66
2020/12/15 00:36:31;;;;;;;3.93;3.60;;;;;;;7.44;69.74;100250.31;4994690;28;20664;-65
2020/12/15 00:38:58;;;;;;;4.53;4.03;;;;;;;7.43;70.51;100246.81;5003650;28;20556;-66
2020/12/15 00:41:24;;;;;;;4.33;3.93;;;;;;;7.44;70.10;100240.56;5011394;28;20207;-66
2020/12/15 00:43:50;;;;;;;4.40;3.90;;;;;;;7.43;69.61;100240.66;5010177;28;20215;-66
2020/12/15 00:46:18;;;;;;;4.30;3.90;;;;;;;7.44;70.18;100237.91;5013089;28;20674;-66
2020/12/15 00:48:44;;;;;;;3.80;3.40;;;;;;;7.45;69.81;100242.28;5010894;28;20213;-66
2020/12/15 00:51:14;;;;;;;4.23;3.70;;;;;;;7.47;69.68;100244.84;5016693;28;20209;-65
2020/12/15 00:53:40;;;;;;;4.30;3.90;;;;;;;7.47;70.56;100244.84;5015339;28;20230;-66
2020/12/15 00:56:07;;;;;;;4.67;3.93;;;;;;;7.48;69.95;100247.41;5011206;28;20213;-66
2020/12/15 00:58:35;;;;;;;6.10;4.00;;;;;;;7.50;70.59;100253.47;5014694;28;20242;-67
2020/12/15 01:01:01;;;;;;;4.20;3.80;;;;;;;7.48;69.84;100242.09;5010397;28;20673;-66
2020/12/15 01:03:27;;;;;;;4.40;3.80;;;;;;;7.50;70.74;100252.63;5000025;28;20232;-67
2020/12/15 01:05:53;;;;;;;4.10;3.70;;;;;;;7.51;70.33;100255.19;4995778;28;20195;-67
2020/12/15 01:08:19;;;;;;;4.60;4.00;;;;;;;7.52;69.92;100256.91;5011871;28;20203;-66
2020/12/15 01:10:45;;;;;;;4.57;3.83;;;;;;;7.53;69.90;100249.75;5014883;28;20225;-66
2020/12/15 01:13:12;;;;;;;3.83;3.43;;;;;;;7.54;69.95;100244.38;5007574;28;20223;-66
2020/12/15 01:15:38;;;;;;;4.67;3.97;;;;;;;7.53;70.78;100237.38;4998194;28;20245;-67
2020/12/15 01:18:04;;;;;;;3.87;3.57;;;;;;;7.55;69.92;100235.50;5001068;28;20215;-67
2020/12/15 01:20:30;;;;;;;4.30;3.90;;;;;;;7.57;70.05;100227.47;5010426;28;20605;-66
2020/12/15 01:22:56;;;;;;;4.53;4.07;;;;;;;7.59;70.49;100220.28;5013853;28;20227;-66
2020/12/15 01:25:22;;;;;;;3.57;3.27;;;;;;;7.62;70.35;100220.09;5008884;28;20779;-67
2020/12/15 01:27:48;;;;;;;3.97;3.67;;;;;;;7.63;69.56;100217.38;5001610;28;20215;-66
2020/12/15 01:30:15;;;;;;;4.70;3.97;;;;;;;7.64;70.16;100203.16;5015433;28;20207;-66
2020/12/15 01:32:41;;;;;;;4.60;4.20;;;;;;;7.63;69.61;100203.25;5015035;28;20223;-66
2020/12/15 01:35:07;;;;;;;4.60;4.17;;;;;;;7.64;69.95;100208.47;5010424;28;20224;-67
2020/12/15 01:37:34;;;;;;;4.60;4.10;;;;;;;7.63;69.77;100213.84;5015191;28;20203;-67
2020/12/15 01:40:00;;;;;;;4.70;4.30;;;;;;;7.62;69.93;100205.06;5014315;28;20199;-66
2020/12/15 01:42:26;;;;;;;4.97;4.47;;;;;;;7.62;70.50;100214.81;5014829;28;20241;-67
2020/12/15 01:44:52;;;;;;;5.13;4.57;;;;;;;7.61;70.15;100208.66;5017162;28;20209;-66
2020/12/15 01:47:19;;;;;;;5.90;5.30;;;;;;;7.60;69.60;100199.00;5007383;28;20320;-66
2020/12/15 01:49:45;;;;;;;5.30;4.80;;;;;;;7.59;70.58;100191.97;5016796;28;20207;-66
2020/12/15 01:52:13;;;;;;;5.97;5.40;;;;;;;7.58;69.77;100186.75;5014477;28;20218;-66
2020/12/15 01:54:39;;;;;;;5.23;4.60;;;;;;;7.56;70.31;100184.19;5014926;28;20238;-67
2020/12/15 01:57:06;;;;;;;5.33;4.83;;;;;;;7.56;70.59;100180.69;5011080;28;20205;-66
2020/12/15 01:59:32;;;;;;;5.37;4.87;;;;;;;7.52;70.26;100169.44;5014750;28;20211;-67
2020/12/15 02:01:58;;;;;;;5.10;4.60;;;;;;;7.52;70.04;100179.19;5013936;28;20231;-66
2020/12/15 02:04:25;;;;;;;5.43;4.70;;;;;;;7.52;70.37;100165.94;5014238;28;20207;-66
2020/12/15 02:06:53;;;;;;;4.70;4.13;;;;;;;7.51;70.50;100157.13;5013480;28;20671;-67
2020/12/15 02:09:19;;;;;;;5.17;4.67;;;;;;;7.52;70.87;100160.66;5014134;28;20203;-66
2020/12/15 02:11:46;;;;;;;5.17;4.67;;;;;;;7.53;70.12;100165.81;5014350;28;20752;-66
2020/12/15 02:14:13;;;;;;;5.50;4.93;;;;;;;7.51;70.59;100154.50;5012266;28;20773;-67
2020/12/15 02:16:40;;;;;;;5.77;5.00;;;;;;;7.51;71.13;100149.19;5011598;28;20208;-67
2020/12/15 02:19:07;;;;;;;6.27;4.93;;;;;;;7.51;70.52;100151.00;5011402;28;20210;-67
2020/12/15 02:21:47;;;;;;;6.97;5.07;;;;;;;7.51;71.17;100148.34;5012901;28;20577;-66
2020/12/15 02:24:13;;;;;;;5.10;4.60;;;;;;;7.49;70.68;100137.81;5008623;28;20203;-66
2020/12/15 02:26:40;;;;;;;5.20;4.50;;;;;;;7.49;71.14;100139.63;5006907;28;20211;-66
2020/12/15 02:29:06;;;;;;;5.07;4.27;;;;;;;7.48;70.28;100133.47;5013827;28;20211;-66
2020/12/15 02:31:32;;;;;;;4.13;3.73;;;;;;;7.49;70.64;100134.31;5013224;28;20297;-66
2020/12/15 02:33:58;;;;;;;5.00;4.17;;;;;;;7.48;71.22;100130.81;5013463;28;20703;-67
2020/12/15 02:36:27;;;;;;;4.87;4.37;;;;;;;7.49;71.36;100127.22;5014169;28;20211;-67
2020/12/15 02:38:54;;;;;;;4.20;3.80;;;;;;;7.49;70.63;100121.06;5012682;28;20221;-67
2020/12/15 02:41:20;;;;;;;4.70;4.20;;;;;;;7.51;70.63;100124.50;5014269;28;20213;-67
2020/12/15 02:43:46;;;;;;;4.70;4.20;;;;;;;7.52;70.99;100127.06;5036721;22;20235;-66
2020/12/15 02:46:12;;;;;;;4.57;4.10;;;;;;;7.54;70.97;100127.78;5012817;28;20679;-67
2020/12/15 02:48:39;;;;;;;5.13;3.90;;;;;;;7.54;71.53;100125.13;5013477;28;20211;-66
2020/12/15 02:51:05;;;;;;;4.30;3.90;;;;;;;7.57;70.71;100126.75;5013004;28;20213;-67
2020/12/15 02:53:31;;;;;;;4.60;4.20;;;;;;;7.58;70.90;100139.06;5012660;28;20305;-67
2020/12/15 02:55:58;;;;;;;4.70;4.00;;;;;;;7.59;70.82;100151.38;5009690;28;20229;-67
2020/12/15 02:58:24;;;;;;;4.43;4.03;;;;;;;7.61;71.03;100176.84;5013482;28;20277;-66
2020/12/15 03:00:50;;;;;;;4.90;4.10;;;;;;;7.62;70.99;100170.59;5012613;28;20202;-67
2020/12/15 03:03:16;;;;;;;4.30;3.90;;;;;;;7.63;70.99;100171.47;5013542;28;20341;-67
2020/12/15 03:05:42;;;;;;;4.10;3.70;;;;;;;7.66;70.75;100195.13;5012706;28;20198;-67
2020/12/15 03:08:08;;;;;;;4.17;3.77;;;;;;;7.67;70.23;100180.94;5013583;28;20571;-67
2020/12/15 03:10:34;;;;;;;3.43;3.13;;;;;;;7.68;70.72;100187.94;5013462;28;20215;-67
2020/12/15 03:13:01;;;;;;;3.17;2.87;;;;;;;7.72;71.33;100192.09;5012356;28;20753;-66
2020/12/15 03:15:27;;;;;;;3.20;2.87;;;;;;;7.75;71.05;100194.56;5013617;28;20226;-67
2020/12/15 03:17:53;;;;;;;3.40;3.10;;;;;;;7.78;70.38;100196.19;5013064;28;20294;-67
2020/12/15 03:20:19;;;;;;;3.30;3.00;;;;;;;7.81;70.76;100196.88;5013112;28;20215;-67
2020/12/15 03:22:45;;;;;;;3.50;3.13;;;;;;;7.85;70.91;100202.88;5013028;28;20231;-67
2020/12/15 03:25:11;;;;;;;3.53;3.23;;;;;;;7.87;70.07;100207.13;5012733;28;20213;-67
2020/12/15 03:27:37;;;;;;;3.87;3.40;;;;;;;7.88;70.37;100195.56;5012925;28;20214;-67
2020/12/15 03:30:04;;;;;;;3.17;2.80;;;;;;;7.89;70.49;100180.50;5012137;28;20207;-67
2020/12/15 03:32:30;;;;;;;3.40;3.10;;;;;;;7.91;70.37;100175.97;5012308;28;20265;-67
2020/12/15 03:34:56;;;;;;;3.53;3.23;;;;;;;7.93;70.00;100176.72;5012363;28;20233;-67
2020/12/15 03:37:22;;;;;;;3.83;3.50;;;;;;;7.93;69.63;100171.44;5012477;28;20211;-67
2020/12/15 03:39:48;;;;;;;3.47;3.17;;;;;;;7.96;70.26;100168.59;5012886;28;20213;-67
2020/12/15 03:42:14;;;;;;;4.00;3.40;;;;;;;7.97;69.98;100165.00;5011472;28;20235;-67
2020/12/15 03:44:41;;;;;;;3.77;3.47;;;;;;;7.98;69.11;100148.16;5011164;28;20202;-67
2020/12/15 03:47:08;;;;;;;3.43;3.13;;;;;;;7.99;69.53;100149.84;5012341;28;20262;-67
2020/12/15 03:49:34;;;;;;;3.40;3.10;;;;;;;8.01;68.89;100153.25;5011386;28;20207;-67
2020/12/15 03:52:00;;;;;;;3.07;2.73;;;;;;;8.04;68.78;100141.63;5011071;28;20213;-66
2020/12/15 03:54:26;;;;;;;3.20;2.90;;;;;;;8.06;68.71;100151.16;5012136;28;20231;-66
2020/12/15 03:56:52;;;;;;;2.80;2.60;;;;;;;8.09;67.98;100164.25;5012466;28;20207;-66
2020/12/15 03:59:18;;;;;;;3.13;2.77;;;;;;;8.11;68.42;100169.47;5009456;28;20221;-66
2020/12/15 04:01:44;;;;;;;2.87;2.53;;;;;;;8.13;68.55;100151.66;5012753;28;20693;-66
2020/12/15 04:04:11;;;;;;;4.83;2.97;;;;;;;8.11;67.99;100141.13;5011666;28;20727;-67
2020/12/15 04:06:37;;;;;;;3.57;3.27;;;;;;;8.13;67.76;100138.41;5012423;28;20211;-67
2020/12/15 04:09:03;;;;;;;4.53;3.00;;;;;;;8.13;67.66;100141.91;5011908;28;20246;-67
2020/12/15 04:11:29;;;;;;;3.97;3.43;;;;;;;8.13;67.45;100131.28;5005503;28;20685;-67
2020/12/15 04:13:55;;;;;;;4.10;3.10;;;;;;;8.15;68.00;100140.00;5011831;28;20231;-67
2020/12/15 04:16:21;;;;;;;3.53;3.20;;;;;;;8.17;67.61;100147.88;5011804;28;20229;-67
2020/12/15 04:18:48;;;;;;;3.90;3.40;;;;;;;8.19;67.81;100152.16;5011960;28;21574;-67
2020/12/15 04:21:15;;;;;;;3.00;2.70;;;;;;;8.21;67.39;100146.75;5012155;28;20234;-67
2020/12/15 04:23:43;;;;;;;4.10;3.20;;;;;;;8.23;66.81;100152.81;5011660;28;20592;-67
2020/12/15 04:26:09;;;;;;;2.97;2.67;;;;;;;8.23;67.25;100158.97;5011919;28;20245;-67
2020/12/15 04:28:35;;;;;;;3.10;2.80;;;;;;;8.24;67.12;100160.66;5012081;28;20209;-66
2020/12/15 04:31:01;;;;;;;3.03;2.73;;;;;;;8.25;67.21;100154.41;5011785;28;20297;-67
2020/12/15 04:33:27;;;;;;;3.63;3.17;;;;;;;8.26;66.54;100158.75;5011594;28;20233;-67
2020/12/15 04:35:53;;;;;;;2.90;2.60;;;;;;;8.28;66.86;100164.81;5011988;28;20233;-67
2020/12/15 04:38:20;;;;;;;3.33;3.00;;;;;;;8.30;66.63;100162.94;5008227;28;20578;-67
2020/12/15 04:40:46;;;;;;;3.13;2.83;;;;;;;8.31;66.16;100156.69;5011090;28;20207;-67
2020/12/15 04:43:14;;;;;;;2.97;2.67;;;;;;;8.34;65.93;100167.16;5011277;28;20304;-67
2020/12/15 04:45:40;;;;;;;3.33;2.90;;;;;;;8.35;66.00;100165.34;5011772;28;20278;-67
2020/12/15 04:48:08;;;;;;;2.83;2.63;;;;;;;8.37;65.62;100162.59;5001414;28;20718;-67
2020/12/15 04:50:36;;;;;;;2.77;2.57;;;;;;;8.37;65.53;100174.06;5006732;28;20199;-67
2020/12/15 04:53:10;;;;;;;3.10;2.80;;;;;;;8.39;66.09;100166.88;5011463;28;20223;-67
2020/12/15 04:55:39;;;;;;;3.37;3.00;;;;;;;8.39;66.20;100166.03;5010690;28;20554;-67
2020/12/15 04:58:06;;;;;;;3.80;2.90;;;;;;;8.39;65.67;100177.47;5008766;28;20670;-67
2020/12/15 05:00:34;;;;;;;3.73;3.27;;;;;;;8.40;65.39;100178.34;5009603;28;20208;-67
2020/12/15 05:03:02;;;;;;;4.30;3.57;;;;;;;8.37;65.81;100181.19;5004385;28;20322;-67
2020/12/15 05:05:30;;;;;;;4.73;3.80;;;;;;;8.35;66.15;100178.63;5000050;28;20262;-67
2020/12/15 05:08:00;;;;;;;5.00;3.80;;;;;;;8.32;66.16;100182.31;5003440;28;20215;-67
2020/12/15 05:10:26;;;;;;;4.57;4.00;;;;;;;8.28;66.51;100180.75;5003086;28;20716;-67
2020/12/15 05:13:23;;;;;;;4.07;3.67;;;;;;;8.24;66.18;100171.25;4999761;28;20223;-67
2020/12/15 05:15:56;;;;;;;4.53;3.87;;;;;;;8.19;66.97;100173.38;5002872;28;20230;-67
2020/12/15 05:18:22;;;;;;;4.90;4.40;;;;;;;8.15;65.98;100168.34;5009759;28;20203;-67
2020/12/15 05:20:48;;;;;;;4.93;4.20;;;;;;;8.11;67.21;100167.66;5005636;28;20210;-66
2020/12/15 05:23:19;;;;;;;5.40;4.47;;;;;;;8.08;66.81;100173.16;5010771;28;20315;-67
2020/12/15 05:25:45;;;;;;;6.60;5.10;;;;;;;8.06;66.21;100177.69;5011327;28;20211;-67
2020/12/15 05:28:13;;;;;;;5.27;4.67;;;;;;;8.03;66.96;100172.59;5012089;28;20243;-67
2020/12/15 05:30:39;;;;;;;5.63;4.73;;;;;;;8.00;67.28;100176.28;5009453;28;20301;-67
2020/12/15 05:33:13;;;;;;;6.33;4.90;;;;;;;7.98;66.38;100170.22;5004053;28;20304;-67
2020/12/15 05:35:39;;;;;;;5.17;4.67;;;;;;;7.96;67.48;100164.16;5010913;28;20597;-67
2020/12/15 05:38:07;;;;;;;7.07;4.27;;;;;;;7.96;66.75;100181.84;5011376;28;20211;-67
2020/12/15 05:40:34;;;;;;;4.67;4.20;;;;;;;7.95;67.38;100177.50;5011063;28;20284;-66
2020/12/15 05:43:01;;;;;;;5.63;4.60;;;;;;;7.96;67.00;100197.75;5009942;28;20711;-67
2020/12/15 05:45:31;;;;;;;6.00;4.87;;;;;;;7.96;67.98;100192.47;5010673;28;20207;-67
2020/12/15 05:48:01;;;;;;;7.53;4.53;;;;;;;7.96;66.81;100197.75;5007473;28;20207;-66
2020/12/15 05:50:27;;;;;;;4.83;4.20;;;;;;;7.97;67.30;100204.78;5005717;28;20203;-66
2020/12/15 05:52:55;;;;;;;4.80;4.30;;;;;;;7.99;67.27;100198.44;5010493;28;20222;-66
2020/12/15 05:55:21;;;;;;;5.13;4.50;;;;;;;8.01;67.68;100190.41;5011715;28;20412;-66
2020/12/15 05:57:47;;;;;;;5.07;4.30;;;;;;;8.03;67.00;100193.81;5014341;28;20209;-66
2020/12/15 06:00:13;;;;;;;4.80;4.03;;;;;;;8.05;68.09;100196.38;5014779;28;20203;-65
2020/12/15 06:02:41;;;;;;;6.10;4.47;;;;;;;8.07;66.94;100184.69;5014406;28;20826;-65
2020/12/15 06:05:07;;;;;;;4.63;4.23;;;;;;;8.08;67.72;100185.56;5004451;28;20195;-66
2020/12/15 06:07:34;;;;;;;5.53;4.40;;;;;;;8.09;67.68;100189.91;5014327;28;20595;-66
2020/12/15 06:10:03;;;;;;;5.93;4.57;;;;;;;8.10;67.37;100181.88;5013422;28;20215;-66
2020/12/15 06:12:29;;;;;;;4.57;4.17;;;;;;;8.11;67.55;100183.56;5006633;28;20707;-66
2020/12/15 06:14:55;;;;;;;4.77;4.20;;;;;;;8.12;67.05;100177.31;5013997;28;20258;-66
2020/12/15 06:17:21;;;;;;;4.10;3.70;;;;;;;8.13;67.34;100173.72;5003612;28;20211;-67
2020/12/15 06:19:53;;;;;;;5.27;4.10;;;;;;;8.14;67.49;100179.88;5001217;28;20668;-66
2020/12/15 06:22:21;;;;;;;5.03;4.53;;;;;;;8.14;67.39;100185.19;5009865;28;20222;-67
2020/12/15 06:24:55;;;;;;;4.83;4.33;;;;;;;8.13;68.10;100194.09;5006356;28;20239;-66
2020/12/15 06:27:30;;;;;;;6.30;4.43;;;;;;;8.13;67.56;100192.28;5003082;28;20219;-66
2020/12/15 06:29:57;;;;;;;5.27;4.60;;;;;;;8.13;67.89;100202.06;5013745;28;20202;-66
2020/12/15 06:32:23;;;;;;;5.70;4.97;;;;;;;8.12;67.86;100209.16;5013091;28;20226;-66
2020/12/15 06:34:50;;;;;;;6.43;4.63;;;;;;;8.12;67.70;100205.66;5013417;28;20235;-67
2020/12/15 06:37:18;;;;;;;8.80;4.70;;;;;;;8.09;67.79;100208.47;5013592;28;20199;-67
2020/12/15 06:39:55;;;;;;;5.57;5.07;;;;;;;8.08;67.75;100214.72;5013988;28;20218;-67
2020/12/15 06:42:22;;;;;;;5.30;4.80;;;;;;;8.06;68.14;100212.16;5010001;28;20234;-67
2020/12/15 06:44:58;;;;;;;6.70;5.43;;;;;;;8.04;68.13;100206.13;5009480;28;20209;-67
2020/12/15 06:47:26;;;;;;;5.33;4.77;;;;;;;8.02;68.48;100224.78;5008662;28;20211;-67
2020/12/15 06:49:52;;;;;;;6.17;4.97;;;;;;;8.02;68.68;100223.94;5004744;28;20199;-67
2020/12/15 06:52:27;;;;;;;5.83;4.90;;;;;;;8.01;68.91;100212.47;4994490;28;20231;-67
2020/12/15 06:54:58;;;;;;;6.40;5.23;;;;;;;7.99;68.47;100206.41;5004216;28;20688;-67
2020/12/15 06:57:34;;;;;;;6.57;5.13;;;;;;;7.98;68.76;100201.19;5001236;28;20218;-67
2020/12/15 07:00:04;;;;;;;6.60;5.37;;;;;;;7.97;69.11;100210.06;4998306;28;20656;-67
2020/12/15 07:02:32;;;;;;;7.43;5.20;;;;;;;7.96;68.83;100209.22;4999874;28;20223;-67
2020/12/15 07:05:19;;;;;;;7.33;5.77;;;;;;;7.97;69.26;100204.78;4999251;28;20253;-67
2020/12/15 07:07:50;;;;;;;7.73;5.90;;;;;;;7.95;69.39;100204.00;5012914;28;20203;-67
2020/12/15 07:10:17;;;;;;;7.43;5.90;;;;;;;7.95;69.41;100204.00;5012825;28;20233;-67
2020/12/15 07:12:46;;;;;;;6.37;5.73;;;;;;;7.94;70.06;100213.75;5018268;28;20655;-66
2020/12/15 07:15:12;;;;;;;6.03;5.40;;;;;;;7.95;70.01;100212.81;5012195;28;20233;-67
2020/12/15 07:17:43;;;;;;;8.73;6.53;;;;;;;7.95;70.25;100206.66;5012517;28;20289;-67
2020/12/15 07:20:09;;;;;;;7.23;6.07;;;;;;;7.94;70.23;100199.66;5012920;28;20207;-67
2020/12/15 07:22:36;;;;;;;7.13;5.87;;;;;;;7.94;70.95;100211.09;5012663;28;20234;-67
2020/12/15 07:25:03;;;;;;;10.80;6.23;;;;;;;7.95;70.30;100220.78;5011879;28;20202;-67
2020/12/15 07:27:32;;;;;;;8.03;6.70;;;;;;;7.94;70.85;100220.84;5005008;28;20671;-67
2020/12/15 07:29:58;;;;;;;6.43;5.50;;;;;;;7.94;71.20;100221.72;5008527;28;20257;-67
2020/12/15 07:32:24;;;;;;;7.33;6.30;;;;;;;7.93;71.35;100219.16;5012346;28;20310;-67
2020/12/15 07:34:59;;;;;;;7.50;6.20;;;;;;;7.94;70.88;100210.25;5012501;28;20246;-67
2020/12/15 07:37:25;;;;;;;7.33;6.20;;;;;;;7.91;71.75;100216.59;5013150;28;20237;-66
2020/12/15 07:39:52;;;;;;;7.40;5.77;;;;;;;7.91;71.00;100221.03;5009434;28;20206;-67
2020/12/15 07:42:19;;;;;;;7.53;6.73;;;;;;;7.89;71.97;100218.47;5001496;28;20731;-67
2020/12/15 07:44:45;;;;;;;11.00;6.00;;;;;;;7.88;71.94;100226.53;5002781;28;20221;-67
2020/12/15 07:47:11;;;;;;;6.47;5.83;;;;;;;7.85;71.49;100216.97;5002956;28;20639;-67
2020/12/15 07:49:38;;;;;;;7.37;5.80;;;;;;;7.84;72.18;100231.16;5011065;28;20206;-67
2020/12/15 07:52:04;;;;;;;8.03;6.00;;;;;;;7.81;72.45;100234.00;5009803;28;20234;-66
2020/12/15 07:54:30;;;;;;;7.00;6.03;;;;;;;7.80;72.00;100234.94;5011817;28;20206;-67
2020/12/15 07:57:00;;;;;;;9.17;6.90;;;;;;;7.78;72.50;100225.38;5008268;28;20215;-67
2020/12/15 07:59:30;;;;;;;7.60;6.40;;;;;;;7.77;72.14;100231.59;5004377;28;20210;-67
2020/12/15 08:01:56;;;;;;;7.77;6.07;;;;;;;7.76;73.01;100221.94;5004312;28;20211;-67
2020/12/15 08:04:25;;;;;;;9.43;6.43;;;;;;;7.73;72.75;100233.56;5010903;28;20672;-67
2020/12/15 08:06:52;;;;;;;7.33;6.43;;;;;;;7.73;73.20;100233.56;5006900;28;20294;-67
2020/12/15 08:09:18;;;;;;;8.33;6.90;;;;;;;7.72;72.70;100237.16;5006783;28;20215;-67
2020/12/15 08:11:45;;;;;;;8.20;6.83;;;;;;;7.71;73.66;100238.09;5010773;28;20199;-67
2020/12/15 08:14:12;;;;;;;9.83;7.30;;;;;;;7.71;73.39;100245.19;5009520;28;20309;-67
2020/12/15 08:16:40;;;;;;;8.60;7.07;;;;;;;7.70;73.69;100252.34;5009978;28;20280;-67
2020/12/15 08:19:06;;;;;;;8.70;6.37;;;;;;;7.70;73.36;100264.72;5008876;28;20203;-66
2020/12/15 08:21:40;;;;;;;12.43;7.10;;;;;;;7.69;73.31;100252.41;4998989;28;20298;-66
2020/12/15 08:24:09;;;;;;;9.20;6.70;;;;;;;7.69;74.14;100252.41;5012293;28;20226;-66
2020/12/15 08:26:36;;;;;;;8.33;6.77;;;;;;;7.68;73.40;100254.22;5008525;28;20214;-66
2020/12/15 08:29:04;;;;;;;8.30;7.50;;;;;;;7.68;74.71;100256.88;4999151;28;20621;-66
2020/12/15 08:31:30;;;;;;;8.53;7.00;;;;;;;7.66;74.69;100254.31;4995784;28;20208;-66
2020/12/15 08:33:57;;;;;;;8.90;6.90;;;;;;;7.66;74.75;100256.94;5001986;28;20230;-66
2020/12/15 08:36:23;;;;;;;8.87;7.30;;;;;;;7.68;74.91;100256.00;5000098;28;20222;-66
2020/12/15 08:38:51;;;;;;;10.60;7.13;;;;;;;7.67;74.88;100249.84;4999991;28;20249;-66
2020/12/15 08:41:17;;;;;;;10.20;6.57;;;;;;;7.67;75.25;100260.47;5003610;28;20619;-66
2020/12/15 08:43:48;;;;;;;11.13;7.17;;;;;;;7.67;74.75;100263.09;5029575;22;20231;-66
2020/12/15 08:46:15;;;;;;;11.03;7.33;;;;;;;7.66;74.92;100270.19;5015614;28;20205;-66
2020/12/15 08:48:41;;;;;;;10.00;7.70;;;;;;;7.66;74.89;100267.56;5020355;28;20213;-66
2020/12/15 08:51:13;;;;;;;8.40;7.13;;;;;;;7.68;75.58;100262.16;5019379;28;20753;-66
2020/12/15 08:53:39;;;;;;;9.20;6.83;;;;;;;7.71;75.69;100261.09;5012182;28;20226;-66
2020/12/15 08:56:13;;;;;;;10.07;7.20;;;;;;;7.69;75.58;100266.53;5022579;28;20230;-66
2020/12/15 08:58:39;;;;;;;7.67;6.40;;;;;;;7.72;75.65;100265.47;5000144;28;20209;-66
2020/12/15 09:01:05;;;;;;;11.20;7.07;;;;;;;7.74;75.49;100277.69;4998878;28;20216;-66
2020/12/15 09:03:35;;;;;;;9.63;7.73;;;;;;;7.78;76.33;100283.69;5020061;28;20234;-66
2020/12/15 09:06:01;;;;;;;7.43;6.63;;;;;;;7.81;75.68;100288.81;5017857;28;20207;-66
2020/12/15 09:08:28;;;;;;;8.77;6.90;;;;;;;7.83;75.94;100277.19;5014409;28;20203;-66
2020/12/15 09:10:55;;;;;;;8.70;7.27;;;;;;;7.86;75.46;100286.75;5010642;28;20577;-66
2020/12/15 09:13:21;;;;;;;8.23;6.53;;;;;;;7.89;76.45;100281.25;5024552;28;20744;-66
2020/12/15 09:15:49;;;;;;;9.10;7.10;;;;;;;7.91;76.18;100279.38;5026023;28;20714;-66
2020/12/15 09:18:16;;;;;;;5.77;4.93;;;;;;;7.94;75.84;100284.50;5007306;28;20690;-66
2020/12/15 09:20:42;;;;;;;8.33;6.40;;;;;;;7.96;76.19;100283.47;4999771;28;20743;-65
2020/12/15 09:23:09;;;;;;;7.87;6.43;;;;;;;8.00;76.01;100277.06;5003987;28;20220;-66
2020/12/15 09:25:36;;;;;;;8.80;6.80;;;;;;;8.02;76.26;100271.66;5004686;28;20290;-66
2020/12/15 09:28:02;;;;;;;7.77;6.97;;;;;;;8.06;76.11;100272.34;4994076;28;20656;-66
2020/12/15 09:30:28;;;;;;;9.20;6.40;;;;;;;8.09;76.07;100274.78;5022925;28;20198;-65
2020/12/15 09:32:54;;;;;;;10.60;7.00;;;;;;;8.13;76.67;100281.63;5026186;28;20310;-65
2020/12/15 09:35:20;;;;;;;6.83;5.87;;;;;;;8.17;76.08;100265.44;5024767;28;20255;-66
2020/12/15 09:37:46;;;;;;;6.33;5.70;;;;;;;8.24;76.30;100268.59;5009422;28;20237;-66
2020/12/15 09:40:13;;;;;;;7.57;6.33;;;;;;;8.30;76.75;100276.16;5022059;28;20321;-66
2020/12/15 09:42:44;;;;;;;8.67;6.30;;;;;;;8.39;76.51;100288.06;5012800;28;20222;-66
2020/12/15 09:45:11;;;;;;;6.73;5.90;;;;;;;8.45;76.11;100293.84;5023093;28;20214;-65
2020/12/15 09:47:40;;;;;;;7.13;5.67;;;;;;;8.52;76.50;100291.69;5016494;28;20203;-65
2020/12/15 09:50:06;;;;;;;9.00;6.13;;;;;;;8.55;75.74;100281.75;5013781;28;20206;-66
2020/12/15 09:52:32;;;;;;;6.73;6.03;;;;;;;8.59;76.13;100280.63;5023318;28;20206;-66
2020/12/15 09:54:58;;;;;;;10.43;6.70;;;;;;;8.63;75.84;100286.56;5030186;28;20236;-65
2020/12/15 09:57:25;;;;;;;11.63;7.10;;;;;;;8.65;75.97;100296.16;5020170;28;20278;-66
2020/12/15 09:59:52;;;;;;;9.13;5.90;;;;;;;8.67;75.23;100312.84;5013709;28;20214;-65
2020/12/15 10:02:18;;;;;;;8.07;6.50;;;;;;;8.70;75.43;100311.81;5018089;28;20214;-65
2020/12/15 10:04:44;;;;;;;10.50;7.10;;;;;;;8.72;75.78;100304.63;5013990;28;20223;-66
2020/12/15 10:07:10;;;;;;;10.40;7.53;;;;;;;8.75;75.82;100304.44;5014158;28;20211;-66
2020/12/15 10:09:36;;;;;;;10.27;7.13;;;;;;;8.79;75.46;100313.88;5007435;28;20203;-65
2020/12/15 10:12:02;;;;;;;6.87;5.40;;;;;;;8.83;75.48;100312.75;5015057;28;20211;-65
2020/12/15 10:14:28;;;;;;;7.70;6.30;;;;;;;8.86;75.38;100293.13;5010323;28;20229;-66
2020/12/15 10:16:55;;;;;;;5.97;5.17;;;;;;;8.87;75.10;100298.34;5010226;28;20572;-65
2020/12/15 10:19:21;;;;;;;7.67;5.93;;;;;;;8.89;74.74;100301.78;5013957;28;20225;-66
2020/12/15 10:21:47;;;;;;;6.53;5.83;;;;;;;8.93;75.03;100313.91;5017295;28;20656;-66
2020/12/15 10:24:13;;;;;;;9.23;6.77;;;;;;;8.98;74.77;100313.63;5029418;28;20218;-66
2020/12/15 10:26:39;;;;;;;7.13;5.70;;;;;;;9.00;75.11;100309.91;5029128;28;20202;-66
2020/12/15 10:29:05;;;;;;;7.67;6.10;;;;;;;9.02;74.41;100304.50;5018078;28;20209;-65
2020/12/15 10:31:32;;;;;;;6.00;5.33;;;;;;;9.02;74.99;100301.84;5018885;28;20218;-64
2020/12/15 10:33:59;;;;;;;6.07;5.47;;;;;;;9.04;74.19;100305.28;5013444;28;20245;-65
2020/12/15 10:36:25;;;;;;;6.53;5.50;;;;;;;9.05;74.17;100299.00;5014055;28;20224;-66
2020/12/15 10:38:53;;;;;;;6.13;5.53;;;;;;;9.05;74.24;100307.84;5017057;28;20199;-65
2020/12/15 10:41:25;;;;;;;6.43;5.70;;;;;;;9.07;74.82;100309.53;5020312;28;20211;-66
2020/12/15 10:43:51;;;;;;;7.17;6.37;;;;;;;9.07;74.67;100312.19;5018033;28;20670;-66
2020/12/15 10:46:22;;;;;;;7.50;6.23;;;;;;;9.08;74.75;100305.94;5018431;28;20651;-65
2020/12/15 10:48:48;;;;;;;7.90;6.50;;;;;;;9.08;74.15;100301.47;5013304;28;20252;-65
2020/12/15 10:51:15;;;;;;;8.17;7.00;;;;;;;9.09;74.44;100308.50;5017613;28;20208;-67
2020/12/15 10:53:41;;;;;;;9.10;6.37;;;;;;;9.10;74.45;100312.88;5019062;28;20230;-66
2020/12/15 10:56:07;;;;;;;6.87;5.33;;;;;;;9.10;74.00;100312.88;5020473;28;20227;-66
2020/12/15 10:58:34;;;;;;;7.50;6.80;;;;;;;9.10;74.27;100310.22;5020049;28;20473;-66
2020/12/15 11:01:00;;;;;;;6.57;5.50;;;;;;;9.10;74.54;100314.69;5020887;28;20206;-65
2020/12/15 11:03:26;;;;;;;6.40;5.63;;;;;;;9.08;74.47;100306.78;5019448;28;20226;-66
2020/12/15 11:05:52;;;;;;;8.50;6.20;;;;;;;9.08;74.49;100309.44;5018666;28;21096;-66
2020/12/15 11:08:19;;;;;;;8.23;7.43;;;;;;;9.07;74.16;100297.13;5015498;28;20199;-65
2020/12/15 11:10:45;;;;;;;7.73;6.27;;;;;;;9.07;73.91;100305.09;5025489;28;20697;-65
2020/12/15 11:13:11;;;;;;;7.27;6.17;;;;;;;9.08;74.12;100295.31;5015034;28;20222;-65
2020/12/15 11:15:37;;;;;;;7.43;6.60;;;;;;;9.09;74.83;100303.19;5020690;28;20222;-66
2020/12/15 11:18:05;;;;;;;7.00;6.27;;;;;;;9.10;74.78;100296.06;5016989;28;20209;-65
2020/12/15 11:20:33;;;;;;;8.13;6.20;;;;;;;9.10;74.29;100290.75;5023692;28;20209;-65
2020/12/15 11:23:00;;;;;;;9.13;6.40;;;;;;;9.09;75.02;100302.34;5017078;28;20305;-65
2020/12/15 11:25:27;;;;;;;8.93;6.13;;;;;;;9.10;74.38;100306.69;5009998;28;20278;-66
2020/12/15 11:27:53;;;;;;;9.20;6.43;;;;;;;9.10;74.42;100298.72;5020618;28;20210;-65
2020/12/15 11:30:19;;;;;;;6.10;5.50;;;;;;;9.10;74.82;100288.09;5017726;28;20214;-65
2020/12/15 11:32:46;;;;;;;6.93;6.13;;;;;;;9.10;74.79;100281.00;5023271;28;20227;-66
2020/12/15 11:35:12;;;;;;;8.03;6.20;;;;;;;9.12;75.36;100280.91;5017293;28;20261;-65